DIAPDIYO

Guest
Details From DIAP - Abidjan Felix Houphouet Boigny Intl
To DIYO - YAMOUSSOUKRO
Flight Number -
Tags generated
Created
Modified
Stats Distance 139 nm / 258 km
Max Altitude 12,400 ft / 3,780 m
Waypoints 4
Social Downloads 0
Likes 0
Share VATSIM

Download

Looking for another format? Having issues loading an existing format? Contact us
Advertisement - Login to hide

Notes

Basic altitude profile: - Ascent Rate: 2500ft/min - Ascent Speed: 250kts - Cruise Altitude: 35000ft - Cruise Speed: 420kts - Descent Rate: 1500ft/min - Descent Speed: 250kts Options: - Use NATs: yes - Use PACOTS: yes - Use low airways: yes - Use high airways: yes

Route

DIAP AD G851F DEGAS DIYO

ID Type Via Altitude Latitude Longitude Leg Dist Tot Dist Heading (true) Name
O DIAP APT - 0 ft / 0 m 5.26139˚ -3.92630˚ - 0 nm - Abidjan Felix Houphouet Boigny Intl
AD VOR - 300 ft / 91 m 5.27719˚ -3.91931˚ 1 nm 1 nm 24° / 24° ABIDJAN VOR-DME
DEGAS FIX G851F (AWY-LO) 12,400 ft / 3,780 m 6.49111˚ -4.48556˚ 80 nm 81 nm 335° / 335° -
O DIYO APT - 0 ft / 0 m 6.90317˚ -5.36558˚ 58 nm 139 nm 295° / 295° YAMOUSSOUKRO

Altitude Profile

Advertisement - Login to hide

DIAP

Details ICAO DIAP (ABJ)
Name Abidjan Felix Houphouet Boigny Intl
Region Côte d'Ivoire
Timezone Africa/Abidjan (UTC+0.0)
Stats Elevation 21 ft / 6 m (AMSL)
Location 5.261386° -3.926296°
Runways 1
Magnetic Variation 4.683° W

METAR

DIAP 121600Z 20006KT 2300 HZ NSC 31/23 Q1009 NOSIG

Decode

TAF

TAF DIAP 121100Z 1212/1318 02008KT 3000 HZ NSC TEMPO 1305/1308 2000 BR

Decode

Departure Runways

ID Width Length Bearing (true) Bearing (mag) Surface Threshold Offset Overrun Length
03 164 ft / 50 m 9,889 ft / 3,014 m 22.27° 26.95° Asphalt 0 ft / 0 m 197 ft / 60 m
21 164 ft / 50 m 9,889 ft / 3,014 m 202.27° 206.95° Asphalt 0 ft / 0 m 328 ft / 100 m

DIYO

Details ICAO DIYO (ASK)
Name YAMOUSSOUKRO
Region Côte d'Ivoire
Timezone Africa/Abidjan (UTC+0.0)
Stats Elevation 699 ft / 213 m (AMSL)
Location 6.903166° -5.365579°
Runways 1
Magnetic Variation 4.683° W

METAR

DIYO 121600Z 30004KT 2000 HZ NSC 32/19 Q1009 NOSIG

Decode

TAF

TAF DIYO 121100Z 1212/1312 06008KT 2000 HZ NSC TEMPO 1305/1308 0800 FG

Decode

Destination Runways

ID Width Length Bearing (true) Bearing (mag) Surface Threshold Offset Overrun Length
05 148 ft / 45 m 9,946 ft / 3,032 m 41.92° 46.60° Asphalt 0 ft / 0 m 330 ft / 101 m
23 148 ft / 45 m 9,946 ft / 3,032 m 221.92° 226.60° Asphalt 0 ft / 0 m 330 ft / 101 m